createdAt,value
2022-12-04T00:01:47.857Z,72.90
2022-12-04T00:04:18.240Z,70.00
2022-12-04T00:06:52.729Z,75.50
2022-12-04T00:09:25.791Z,65.40
2022-12-04T00:11:56.881Z,68.30
2022-12-04T00:14:27.532Z,61.80
2022-12-04T00:16:59.018Z,59.20
2022-12-04T00:19:29.394Z,61.20
2022-12-04T00:22:00.054Z,59.30
2022-12-04T00:24:31.060Z,60.30
2022-12-04T00:27:01.967Z,60.50
2022-12-04T00:29:32.328Z,56.00
2022-12-04T00:32:03.301Z,61.90
2022-12-04T00:34:33.907Z,57.50
2022-12-04T00:37:04.480Z,58.90
2022-12-04T00:39:35.780Z,60.10
2022-12-04T00:42:06.826Z,59.70
2022-12-04T00:44:37.246Z,58.50
2022-12-04T00:47:08.125Z,62.00
2022-12-04T00:49:38.823Z,60.40
2022-12-04T00:52:09.750Z,63.30
2022-12-04T00:54:41.743Z,65.30
2022-12-04T00:57:12.827Z,63.60
2022-12-04T00:59:43.493Z,59.00
2022-12-04T01:02:14.465Z,65.10
2022-12-04T01:04:44.978Z,63.90
2022-12-04T01:07:15.881Z,67.90
2022-12-04T01:09:46.312Z,61.90
2022-12-04T01:12:20.746Z,69.40
2022-12-04T01:14:51.564Z,66.40
2022-12-04T01:17:22.663Z,57.40
2022-12-04T01:19:53.745Z,62.10
2022-12-04T01:22:24.739Z,63.00
2022-12-04T01:24:57.715Z,58.20
2022-12-04T01:27:28.695Z,69.30
2022-12-04T01:29:59.270Z,68.40
2022-12-04T01:32:31.148Z,60.70
2022-12-04T01:35:01.630Z,67.80
2022-12-04T01:37:33.080Z,62.20
2022-12-04T01:40:03.612Z,56.20
2022-12-04T01:42:34.340Z,59.90
2022-12-04T01:45:22.383Z,62.60
2022-12-04T01:47:55.469Z,61.50
2022-12-04T01:50:26.369Z,66.10
2022-12-04T01:52:57.592Z,61.00
2022-12-04T01:55:28.082Z,56.30
2022-12-04T01:57:59.825Z,53.10
2022-12-04T02:00:31.307Z,58.40
2022-12-04T02:03:02.736Z,61.50
2022-12-04T02:05:33.274Z,58.30
2022-12-04T02:08:06.175Z,66.10
2022-12-04T02:10:48.347Z,61.30
2022-12-04T02:13:23.239Z,64.80
2022-12-04T02:15:55.351Z,67.10
2022-12-04T02:18:32.284Z,57.50
2022-12-04T02:21:07.385Z,63.60
2022-12-04T02:23:51.643Z,65.00
2022-12-04T02:26:29.814Z,65.70
2022-12-04T02:29:04.233Z,55.90
2022-12-04T02:31:36.607Z,57.50
2022-12-04T02:34:10.581Z,51.50
2022-12-04T02:36:44.418Z,55.90
2022-12-04T02:39:19.423Z,52.80
2022-12-04T02:41:52.545Z,54.20
2022-12-04T02:44:25.125Z,53.70
2022-12-04T02:46:57.333Z,53.10
2022-12-04T02:49:29.357Z,58.50
2022-12-04T02:52:00.908Z,52.30
2022-12-04T02:54:33.530Z,49.60
2022-12-04T02:57:05.974Z,54.30
2022-12-04T02:59:38.836Z,49.10
2022-12-04T03:02:11.890Z,54.90
2022-12-04T03:04:43.537Z,53.60
2022-12-04T03:07:15.996Z,54.80
2022-12-04T03:09:48.935Z,52.40
2022-12-04T03:12:20.601Z,54.60
2022-12-04T03:14:53.479Z,64.20
2022-12-04T03:17:26.974Z,60.40
2022-12-04T03:19:59.659Z,55.20
2022-12-04T03:22:30.999Z,59.50
2022-12-04T03:25:02.355Z,64.20
2022-12-04T03:27:35.604Z,57.80
2022-12-04T03:32:37.998Z,63.60
2022-12-04T03:35:12.587Z,58.60
2022-12-04T03:37:46.569Z,62.10
2022-12-04T03:40:21.286Z,60.70
2022-12-04T03:42:54.070Z,63.90
2022-12-04T03:45:26.639Z,62.10
2022-12-04T03:48:00.272Z,59.60
2022-12-04T03:50:35.007Z,50.80
2022-12-04T03:53:09.577Z,49.90
2022-12-04T03:55:43.298Z,53.30
2022-12-04T03:58:16.384Z,56.90
2022-12-04T04:00:48.694Z,48.20
2022-12-04T04:03:21.227Z,65.60
2022-12-04T04:05:54.842Z,55.80
2022-12-04T04:08:28.139Z,54.60
2022-12-04T04:11:01.096Z,54.10
2022-12-04T04:13:51.404Z,60.20
2022-12-04T04:16:41.285Z,63.80
2022-12-04T04:19:31.173Z,52.90
2022-12-04T04:22:21.818Z,55.00
2022-12-04T04:24:55.109Z,59.60
2022-12-04T04:29:55.043Z,54.20
2022-12-04T04:32:30.560Z,60.60
2022-12-04T04:35:04.961Z,53.20
2022-12-04T04:37:39.689Z,54.10
2022-12-04T04:40:15.127Z,59.60
2022-12-04T04:42:47.418Z,52.00
2022-12-04T04:45:20.001Z,51.00
2022-12-04T04:47:53.300Z,57.80
2022-12-04T04:52:55.755Z,52.20
2022-12-04T04:55:26.745Z,47.30
2022-12-04T04:58:07.008Z,50.90
2022-12-04T05:00:38.197Z,44.10
2022-12-04T05:03:08.961Z,42.30
2022-12-04T05:05:39.460Z,42.70
2022-12-04T05:08:10.337Z,40.00
2022-12-04T05:10:40.967Z,42.70
2022-12-04T05:13:12.894Z,40.00
2022-12-04T05:15:43.655Z,42.60
2022-12-04T05:18:14.354Z,42.70
2022-12-04T05:20:44.878Z,41.00
2022-12-04T05:23:15.516Z,41.60
2022-12-04T05:25:45.952Z,40.10
2022-12-04T05:28:16.705Z,43.10
2022-12-04T05:30:47.344Z,34.20
2022-12-04T05:33:18.238Z,39.90
2022-12-04T05:35:56.854Z,41.20
2022-12-04T05:38:28.145Z,45.60
2022-12-04T05:41:00.419Z,42.30
2022-12-04T05:43:31.293Z,48.40
2022-12-04T05:46:03.162Z,42.00
2022-12-04T05:48:35.129Z,40.50
2022-12-04T05:51:08.251Z,39.30
2022-12-04T05:53:39.522Z,39.30
2022-12-04T05:56:11.654Z,46.10
2022-12-04T05:58:42.260Z,43.60
2022-12-04T06:01:13.738Z,44.00
2022-12-04T06:03:44.439Z,44.60
2022-12-04T06:06:21.044Z,47.80
2022-12-04T06:08:53.559Z,40.70
2022-12-04T06:11:24.839Z,40.90
2022-12-04T06:13:56.841Z,37.20
2022-12-04T06:16:28.357Z,40.00
2022-12-04T06:19:00.827Z,43.70
2022-12-04T06:21:32.890Z,41.80
2022-12-04T06:24:03.631Z,46.90
2022-12-04T06:26:34.248Z,42.30
2022-12-04T06:29:05.089Z,44.90
2022-12-04T06:31:36.593Z,47.00
2022-12-04T06:34:08.627Z,49.40
2022-12-04T06:36:39.229Z,46.30
2022-12-04T06:39:14.160Z,51.50
2022-12-04T06:41:50.123Z,47.00
2022-12-04T06:44:20.755Z,48.80
2022-12-04T06:46:51.277Z,43.30
2022-12-04T06:49:23.343Z,42.40
2022-12-04T06:51:54.077Z,46.00
2022-12-04T06:54:24.505Z,38.70
2022-12-04T06:56:54.964Z,43.30
2022-12-04T06:59:25.603Z,37.70
2022-12-04T07:01:56.906Z,37.00
2022-12-04T07:04:28.154Z,38.80
2022-12-04T07:06:58.843Z,36.90
2022-12-04T07:09:29.313Z,36.80
2022-12-04T07:11:59.839Z,38.20
2022-12-04T07:14:31.037Z,30.30
2022-12-04T07:17:01.634Z,34.10
2022-12-04T07:19:32.293Z,34.00
2022-12-04T07:22:02.872Z,35.10
2022-12-04T07:24:33.712Z,34.70
2022-12-04T07:27:04.852Z,33.00
2022-12-04T07:29:35.692Z,32.90
2022-12-04T07:32:06.767Z,37.70
2022-12-04T07:34:37.566Z,35.80
2022-12-04T07:37:08.090Z,34.50
2022-12-04T07:39:38.535Z,35.90
2022-12-04T07:42:09.154Z,34.40
2022-12-04T07:44:39.695Z,37.80
2022-12-04T07:47:10.202Z,34.60
2022-12-04T07:49:40.978Z,35.10
2022-12-04T07:52:11.363Z,33.80
2022-12-04T07:54:42.244Z,30.20
2022-12-04T07:57:12.737Z,32.10
2022-12-04T07:59:43.467Z,30.00
2022-12-04T08:02:14.812Z,28.70
2022-12-04T08:04:45.560Z,32.40
2022-12-04T08:07:16.169Z,32.50
2022-12-04T08:09:47.418Z,37.70
2022-12-04T08:12:17.965Z,35.90
2022-12-04T08:14:50.560Z,38.10
2022-12-04T08:17:21.293Z,33.00
2022-12-04T08:19:52.236Z,36.20
2022-12-04T08:22:25.290Z,38.10
2022-12-04T08:24:56.256Z,37.70
2022-12-04T08:27:26.848Z,33.10
2022-12-04T08:29:57.763Z,34.20
2022-12-04T08:32:28.727Z,33.00
2022-12-04T08:34:59.480Z,37.60
2022-12-04T08:37:30.397Z,36.50
2022-12-04T08:40:01.087Z,42.30
2022-12-04T08:42:31.656Z,43.30
2022-12-04T08:45:02.406Z,36.70
2022-12-04T08:47:32.929Z,35.40
2022-12-04T08:50:03.772Z,37.00
2022-12-04T08:52:34.494Z,32.90
2022-12-04T08:55:05.292Z,37.10
2022-12-04T08:57:35.954Z,29.60
2022-12-04T09:00:07.408Z,34.70
2022-12-04T09:02:37.930Z,29.00
2022-12-04T09:05:08.975Z,30.10
2022-12-04T09:07:39.658Z,31.80
2022-12-04T09:10:11.365Z,33.50
2022-12-04T09:12:41.902Z,32.60
2022-12-04T09:15:13.032Z,36.00
2022-12-04T09:17:43.558Z,31.20
2022-12-04T09:20:15.321Z,29.50
2022-12-04T09:23:03.437Z,32.70
2022-12-04T09:25:36.666Z,30.40
2022-12-04T09:28:07.377Z,32.90
2022-12-04T09:30:38.332Z,30.20
2022-12-04T09:33:08.769Z,31.60
2022-12-04T09:35:41.014Z,29.40
2022-12-04T09:38:11.547Z,31.60
2022-12-04T09:40:47.001Z,35.50
2022-12-04T09:43:23.352Z,33.70
2022-12-04T09:45:56.682Z,30.30
2022-12-04T09:48:32.192Z,30.50
2022-12-04T09:51:03.246Z,32.70
2022-12-04T09:53:37.209Z,32.30
2022-12-04T09:56:09.523Z,32.30
2022-12-04T09:58:42.392Z,28.50
2022-12-04T10:01:18.556Z,32.10
2022-12-04T10:03:49.415Z,31.20
2022-12-04T10:06:24.341Z,31.40
2022-12-04T10:09:00.088Z,30.70
2022-12-04T10:11:38.017Z,37.60
2022-12-04T10:14:15.774Z,36.20
2022-12-04T10:16:52.958Z,33.70
2022-12-04T10:19:30.456Z,32.90
2022-12-04T10:22:05.531Z,34.60
2022-12-04T10:24:40.869Z,36.40
2022-12-04T10:27:13.554Z,31.10
2022-12-04T10:29:48.440Z,34.60
2022-12-04T10:32:21.834Z,31.80
2022-12-04T10:34:54.813Z,29.60
2022-12-04T10:37:25.957Z,29.20
2022-12-04T10:39:59.414Z,32.20
2022-12-04T10:42:32.651Z,32.50
2022-12-04T10:45:03.461Z,29.00
2022-12-04T10:47:34.506Z,25.50
2022-12-04T10:50:06.998Z,26.30
2022-12-04T10:52:37.855Z,29.50
2022-12-04T10:55:08.689Z,29.60
2022-12-04T10:57:40.433Z,29.50
2022-12-04T11:00:28.678Z,26.40
2022-12-04T11:03:01.175Z,24.70
2022-12-04T11:05:34.332Z,25.10
2022-12-04T11:08:06.272Z,28.20
2022-12-04T11:10:38.982Z,28.80
2022-12-04T11:13:16.816Z,32.00
2022-12-04T11:15:48.796Z,28.90
2022-12-04T11:18:20.707Z,26.90
2022-12-04T11:20:55.230Z,27.40
2022-12-04T11:23:26.752Z,28.50
2022-12-04T11:26:05.263Z,26.10
2022-12-04T11:28:42.668Z,26.40
2022-12-04T11:31:19.861Z,27.20
2022-12-04T11:33:53.556Z,26.40
2022-12-04T11:36:25.391Z,25.90
2022-12-04T11:39:05.373Z,25.60
2022-12-04T11:41:36.035Z,28.20
2022-12-04T11:44:08.891Z,24.10
2022-12-04T11:46:39.815Z,23.80
2022-12-04T11:49:21.823Z,25.00
2022-12-04T11:51:57.262Z,23.80
2022-12-04T11:54:30.715Z,23.80
2022-12-04T11:57:04.162Z,27.40
2022-12-04T11:59:41.955Z,24.80
2022-12-04T12:02:24.376Z,27.70
2022-12-04T12:05:04.316Z,27.40
2022-12-04T12:07:40.569Z,23.50
2022-12-04T12:10:13.938Z,22.70
2022-12-04T12:12:50.197Z,24.00
2022-12-04T12:15:24.941Z,18.20
2022-12-04T12:18:00.446Z,19.50
2022-12-04T12:20:32.907Z,19.90
2022-12-04T12:23:14.125Z,21.30
2022-12-04T12:25:52.168Z,21.80
2022-12-04T12:28:30.782Z,21.20
2022-12-04T12:31:07.769Z,18.40
2022-12-04T12:33:41.371Z,20.50
2022-12-04T12:36:12.608Z,21.10
2022-12-04T12:38:45.503Z,21.90
2022-12-04T12:41:17.860Z,23.50
2022-12-04T12:43:52.487Z,20.40
2022-12-04T12:46:26.272Z,19.80
2022-12-04T12:49:02.001Z,20.20
2022-12-04T12:51:34.886Z,24.20
2022-12-04T12:54:12.679Z,20.40
2022-12-04T12:56:49.748Z,24.20
2022-12-04T12:59:22.096Z,22.20
2022-12-04T13:02:00.209Z,21.70
2022-12-04T13:04:35.204Z,22.60
2022-12-04T13:07:12.402Z,22.10
2022-12-04T13:09:46.764Z,25.00
2022-12-04T13:12:19.597Z,21.60
2022-12-04T13:14:50.172Z,23.00
2022-12-04T13:17:22.606Z,23.30
2022-12-04T13:19:55.230Z,24.20
2022-12-04T13:22:29.377Z,25.90
2022-12-04T13:25:07.801Z,26.70
2022-12-04T13:27:43.807Z,23.50
2022-12-04T13:30:18.023Z,24.60
2022-12-04T13:35:20.689Z,25.30
2022-12-04T13:38:01.052Z,24.40
2022-12-04T13:40:33.780Z,28.10
2022-12-04T13:43:24.572Z,25.50
2022-12-04T13:45:57.097Z,25.30
2022-12-04T13:48:32.696Z,25.20
2022-12-04T13:51:08.275Z,23.90
2022-12-04T13:53:40.534Z,25.40
2022-12-04T13:56:26.851Z,26.20
2022-12-04T13:59:05.496Z,21.70
2022-12-04T14:01:39.907Z,22.10
2022-12-04T14:04:23.984Z,20.80
2022-12-04T14:06:56.311Z,24.10
2022-12-04T14:09:31.639Z,24.00
2022-12-04T14:12:04.127Z,23.20
2022-12-04T14:14:38.643Z,21.60
2022-12-04T14:17:18.255Z,20.80
2022-12-04T14:19:53.653Z,24.10
2022-12-04T14:22:28.864Z,26.50
2022-12-04T14:25:21.568Z,25.10
2022-12-04T14:27:53.396Z,25.80
2022-12-04T14:30:25.210Z,26.80
2022-12-04T14:32:57.600Z,25.90
2022-12-04T14:35:29.355Z,24.90
2022-12-04T14:38:01.879Z,27.20
2022-12-04T14:40:35.257Z,26.20
2022-12-04T14:45:38.058Z,27.20
2022-12-04T14:48:19.672Z,24.20
2022-12-04T14:50:55.174Z,22.80
2022-12-04T14:53:30.937Z,24.00
2022-12-04T14:56:07.802Z,28.20
2022-12-04T14:58:40.097Z,28.30
2022-12-04T15:01:25.292Z,25.30
2022-12-04T15:04:00.676Z,30.20
2022-12-04T15:06:33.353Z,28.30
2022-12-04T15:09:19.450Z,30.20
2022-12-04T15:12:09.641Z,26.40
2022-12-04T15:14:44.271Z,27.80
2022-12-04T15:17:16.625Z,30.10
2022-12-04T15:19:47.127Z,28.30
2022-12-04T15:22:22.405Z,28.10
2022-12-04T15:24:53.877Z,27.00
2022-12-04T15:27:31.925Z,29.20
2022-12-04T15:30:03.924Z,30.60
2022-12-04T15:32:35.159Z,29.50
2022-12-04T15:35:09.511Z,28.70
2022-12-04T15:37:42.004Z,31.80
2022-12-04T15:40:19.901Z,27.40
2022-12-04T15:43:16.842Z,27.80
2022-12-04T15:45:48.287Z,28.10
2022-12-04T15:48:25.422Z,29.30
2022-12-04T15:51:00.117Z,27.40
2022-12-04T15:53:31.693Z,27.70
2022-12-04T15:56:03.840Z,27.00
2022-12-04T15:58:35.767Z,26.00
2022-12-04T16:01:06.989Z,26.40
2022-12-04T16:03:39.954Z,26.10
2022-12-04T16:06:16.462Z,26.90
2022-12-04T16:08:48.309Z,32.10
2022-12-04T16:11:29.620Z,31.70
2022-12-04T16:14:14.779Z,29.20
2022-12-04T16:16:47.023Z,27.70
2022-12-04T16:19:18.914Z,26.70
2022-12-04T16:21:49.558Z,27.50
2022-12-04T16:24:20.683Z,31.20
2022-12-04T16:26:52.493Z,30.30
2022-12-04T16:29:25.340Z,24.20
2022-12-04T16:32:01.229Z,30.20
2022-12-04T16:34:33.662Z,27.70
2022-12-04T16:37:07.537Z,32.40
2022-12-04T16:39:41.342Z,29.30
2022-12-04T16:42:17.078Z,30.10
2022-12-04T16:45:04.630Z,31.10
2022-12-04T16:47:35.111Z,31.10
2022-12-04T16:50:06.370Z,29.20
2022-12-04T16:52:36.836Z,30.00
2022-12-04T16:55:11.820Z,30.00
2022-12-04T16:57:42.513Z,31.90
2022-12-04T17:00:15.038Z,29.10
2022-12-04T17:02:45.854Z,28.30
2022-12-04T17:05:20.689Z,34.70
2022-12-04T17:07:51.297Z,32.10
2022-12-04T17:10:24.339Z,33.90
2022-12-04T17:12:55.230Z,30.80
2022-12-04T17:15:25.982Z,34.10
2022-12-04T17:17:57.076Z,37.60
2022-12-04T17:20:28.256Z,33.90
2022-12-04T17:22:59.008Z,37.80
2022-12-04T17:25:29.889Z,30.70
2022-12-04T17:28:00.628Z,31.60
2022-12-04T17:30:36.005Z,37.50
2022-12-04T17:33:07.186Z,37.70
2022-12-04T17:35:37.819Z,34.70
2022-12-04T17:38:08.342Z,33.40
2022-12-04T17:40:39.102Z,33.00
2022-12-04T17:43:09.780Z,30.80
2022-12-04T17:45:42.368Z,33.60
2022-12-04T17:48:13.117Z,33.40
2022-12-04T17:50:43.959Z,35.10
2022-12-04T17:53:14.691Z,31.30
2022-12-04T17:55:45.420Z,36.70
2022-12-04T17:58:15.899Z,30.40
2022-12-04T18:00:46.511Z,28.50
2022-12-04T18:03:17.160Z,32.40
2022-12-04T18:05:48.310Z,33.20
2022-12-04T18:08:18.945Z,33.70
2022-12-04T18:10:50.079Z,32.80
2022-12-04T18:13:20.657Z,34.90
2022-12-04T18:15:51.953Z,32.20
2022-12-04T18:18:23.251Z,31.60
2022-12-04T18:21:02.324Z,32.60
2022-12-04T18:23:33.212Z,32.60
2022-12-04T18:26:05.429Z,33.70
2022-12-04T18:28:36.420Z,34.50
2022-12-04T18:31:08.092Z,35.10
2022-12-04T18:33:41.081Z,35.10
2022-12-04T18:36:14.151Z,34.60
2022-12-04T18:38:45.294Z,29.20
2022-12-04T18:41:16.996Z,34.00
2022-12-04T18:43:47.937Z,34.60
2022-12-04T18:46:20.334Z,30.10
2022-12-04T18:48:53.918Z,31.60
2022-12-04T18:53:56.920Z,33.60
2022-12-04T18:56:28.014Z,33.20
2022-12-04T18:58:59.276Z,31.50
2022-12-04T19:01:31.700Z,37.60
2022-12-04T19:04:18.403Z,33.10
2022-12-04T19:06:50.408Z,33.00
2022-12-04T19:09:35.481Z,32.00
2022-12-04T19:12:13.201Z,31.10
2022-12-04T19:14:43.877Z,30.90
2022-12-04T19:17:15.483Z,31.90
2022-12-04T19:19:46.300Z,35.50
2022-12-04T19:22:17.008Z,32.50
2022-12-04T19:24:48.274Z,30.70
2022-12-04T19:27:19.753Z,33.30
2022-12-04T19:29:50.640Z,31.20
2022-12-04T19:32:22.221Z,33.80
2022-12-04T19:34:53.248Z,31.50
2022-12-04T19:37:23.875Z,35.20
2022-12-04T19:39:55.176Z,34.90
2022-12-04T19:42:26.361Z,40.30
2022-12-04T19:44:57.105Z,32.50
2022-12-04T19:47:27.831Z,30.50
2022-12-04T19:49:59.180Z,32.00
2022-12-04T19:52:32.617Z,34.50
2022-12-04T19:55:03.817Z,35.70
2022-12-04T19:57:35.060Z,33.80
2022-12-04T20:00:07.723Z,35.00
2022-12-04T20:02:42.742Z,33.90
2022-12-04T20:05:13.557Z,29.90
2022-12-04T20:07:44.193Z,34.80
2022-12-04T20:10:15.220Z,30.20
2022-12-04T20:12:46.571Z,35.60
2022-12-04T20:15:17.253Z,34.60
2022-12-04T20:17:47.677Z,36.90
2022-12-04T20:20:18.525Z,37.20
2022-12-04T20:22:49.352Z,36.70
2022-12-04T20:25:20.312Z,36.40
2022-12-04T20:27:51.140Z,31.90
2022-12-04T20:30:22.450Z,31.10
2022-12-04T20:32:53.279Z,30.70
2022-12-04T20:35:24.018Z,32.30
2022-12-04T20:37:54.668Z,36.20
2022-12-04T20:40:25.612Z,34.80
2022-12-04T20:42:56.340Z,33.00
2022-12-04T20:45:27.039Z,35.60
2022-12-04T20:47:57.612Z,33.10
2022-12-04T20:50:28.358Z,32.10
2022-12-04T20:52:59.035Z,31.10
2022-12-04T20:55:29.938Z,30.20
2022-12-04T20:58:00.739Z,32.80
2022-12-04T21:00:32.050Z,32.90
2022-12-04T21:03:03.563Z,35.20
2022-12-04T21:05:35.087Z,35.80
2022-12-04T21:08:05.904Z,36.80
2022-12-04T21:10:36.468Z,36.30
2022-12-04T21:13:26.640Z,33.70
2022-12-04T21:16:02.562Z,33.80
2022-12-04T21:18:33.227Z,34.80
2022-12-04T21:21:04.264Z,33.00
2022-12-04T21:23:36.318Z,33.90
2022-12-04T21:26:07.272Z,36.30
2022-12-04T21:28:38.026Z,33.70
2022-12-04T21:31:09.070Z,31.10
2022-12-04T21:33:40.081Z,40.40
2022-12-04T21:36:11.433Z,38.50
2022-12-04T21:38:42.170Z,40.40
2022-12-04T21:41:34.840Z,39.00
2022-12-04T21:44:07.001Z,33.90
2022-12-04T21:46:38.721Z,38.40
2022-12-04T21:49:09.619Z,35.90
2022-12-04T21:51:56.727Z,36.70
2022-12-04T21:54:28.453Z,36.20
2022-12-04T21:56:59.488Z,41.70
2022-12-04T21:59:30.323Z,37.70
2022-12-04T22:02:01.182Z,39.90
2022-12-04T22:04:31.917Z,35.10
2022-12-04T22:07:03.034Z,34.30
2022-12-04T22:09:33.901Z,34.40
2022-12-04T22:12:26.366Z,35.40
2022-12-04T22:14:55.675Z,36.50
2022-12-04T22:17:29.730Z,40.80
2022-12-04T22:20:00.385Z,36.00
2022-12-04T22:22:31.266Z,34.80
2022-12-04T22:25:02.638Z,35.40
2022-12-04T22:27:33.460Z,32.60
2022-12-04T22:30:04.985Z,32.70
2022-12-04T22:32:36.276Z,31.60
2022-12-04T22:35:07.328Z,39.40
2022-12-04T22:37:42.748Z,35.30
2022-12-04T22:40:15.867Z,31.70
2022-12-04T22:42:46.739Z,35.70
2022-12-04T22:45:17.679Z,32.80
2022-12-04T22:47:48.450Z,32.70
2022-12-04T22:50:19.449Z,35.00
2022-12-04T22:52:50.272Z,32.00
2022-12-04T22:55:21.270Z,34.40
2022-12-04T22:57:51.940Z,36.80
2022-12-04T23:00:22.838Z,30.60
2022-12-04T23:02:53.544Z,32.50
2022-12-04T23:05:24.151Z,34.60
2022-12-04T23:07:55.519Z,33.70
2022-12-04T23:10:26.489Z,30.80
2022-12-04T23:12:57.223Z,30.90
2022-12-04T23:15:30.771Z,32.90
2022-12-04T23:18:01.424Z,30.80
2022-12-04T23:20:32.027Z,31.10
2022-12-04T23:23:03.537Z,38.10
2022-12-04T23:25:39.433Z,35.30
2022-12-04T23:28:10.226Z,35.50
2022-12-04T23:30:45.453Z,34.70
2022-12-04T23:33:16.295Z,35.50
2022-12-04T23:35:47.136Z,36.40
2022-12-04T23:38:18.221Z,39.10
2022-12-04T23:40:49.211Z,41.20
2022-12-04T23:43:20.672Z,40.00
2022-12-04T23:45:51.293Z,39.90
2022-12-04T23:48:22.137Z,40.10
2022-12-04T23:50:53.226Z,40.30
2022-12-04T23:53:24.433Z,42.70
2022-12-04T23:55:58.639Z,41.40
2022-12-04T23:58:29.573Z,41.10
